Time;durP1;ratioP1;P1;durP2;ratioP2;P2;SDS_P1;SDS_P2;PMS_P1;PMS_P2;Temp;Humidity;BMP_temperature;BMP_pressure;BME280_temperature;BME280_humidity;BME280_pressure;Samples;Min_cycle;Max_cycle;Signal;HPM_P1;HPM_P2
2023/05/13 00:02:01;;;;;;;0.60;0.60;;;;;;;;;;5058972;28;20199;-85
2023/05/13 00:04:27;;;;;;;0.50;0.50;;;;;;;;;;5058584;28;20634;-84
2023/05/13 00:06:53;;;;;;;0.60;0.60;;;;;;;;;;5055391;28;20241;-85
2023/05/13 00:09:19;;;;;;;0.60;0.60;;;;;;;;;;5054951;28;20552;-86
2023/05/13 00:11:45;;;;;;;0.50;0.50;;;;;;;;;;5055032;28;20183;-85
2023/05/13 00:14:11;;;;;;;0.50;0.50;;;;;;;;;;5055417;28;20229;-85
2023/05/13 00:16:37;;;;;;;0.40;0.40;;;;;;;;;;5060841;28;20649;-85
2023/05/13 00:19:03;;;;;;;0.50;0.50;;;;;;;;;;5078669;28;20199;-85
2023/05/13 00:21:30;;;;;;;0.60;0.60;;;;;;;;;;5078631;28;20167;-84
2023/05/13 00:23:56;;;;;;;0.50;0.50;;;;;;;;;;5077785;28;20187;-84
2023/05/13 00:26:23;;;;;;;0.50;0.50;;;;;;;;;;5078320;28;20162;-85
2023/05/13 00:28:49;;;;;;;0.53;0.53;;;;;;;;;;5070378;28;20190;-85
2023/05/13 00:31:15;;;;;;;0.50;0.50;;;;;;;;;;5054974;28;20287;-86
2023/05/13 00:33:41;;;;;;;0.50;0.50;;;;;;;;;;5053722;28;20275;-85
2023/05/13 00:36:09;;;;;;;0.57;0.57;;;;;;;;;;5054480;28;20637;-85
2023/05/13 00:38:35;;;;;;;0.50;0.50;;;;;;;;;;5036981;28;20576;-85
2023/05/13 00:41:01;;;;;;;0.50;0.50;;;;;;;;;;5055035;28;20175;-85
2023/05/13 00:43:28;;;;;;;0.50;0.50;;;;;;;;;;5054019;28;20282;-86
2023/05/13 00:45:54;;;;;;;0.50;0.50;;;;;;;;;;5053924;28;20237;-86
2023/05/13 00:48:21;;;;;;;0.50;0.50;;;;;;;;;;5053850;28;20182;-86
2023/05/13 00:50:47;;;;;;;0.53;0.53;;;;;;;;;;5055969;28;20274;-85
2023/05/13 00:53:13;;;;;;;0.40;0.40;;;;;;;;;;5054595;28;20233;-86
2023/05/13 00:55:41;;;;;;;0.40;0.40;;;;;;;;;;5055411;28;20282;-85
2023/05/13 00:58:07;;;;;;;0.60;0.60;;;;;;;;;;5054763;28;20178;-86
2023/05/13 01:00:35;;;;;;;0.50;0.50;;;;;;;;;;5055567;28;20172;-86
2023/05/13 01:03:01;;;;;;;0.50;0.50;;;;;;;;;;5054705;28;20541;-86
2023/05/13 01:05:28;;;;;;;0.50;0.50;;;;;;;;;;5055900;28;20308;-85
2023/05/13 01:08:09;;;;;;;0.43;0.43;;;;;;;;;;5055454;28;20269;-85
2023/05/13 01:10:36;;;;;;;0.50;0.50;;;;;;;;;;5055003;28;20568;-86
2023/05/13 01:13:07;;;;;;;0.60;0.60;;;;;;;;;;5053968;28;20292;-85
2023/05/13 01:15:34;;;;;;;0.50;0.50;;;;;;;;;;5054068;28;20176;-86
2023/05/13 01:18:08;;;;;;;0.50;0.50;;;;;;;;;;5055256;28;20195;-85
2023/05/13 01:20:34;;;;;;;0.50;0.50;;;;;;;;;;5053920;28;20263;-85
2023/05/13 01:23:02;;;;;;;0.47;0.47;;;;;;;;;;5054564;28;20290;-86
2023/05/13 01:25:28;;;;;;;0.50;0.50;;;;;;;;;;5056009;28;20175;-85
2023/05/13 01:27:55;;;;;;;0.50;0.50;;;;;;;;;;5054956;28;20209;-86
2023/05/13 01:30:22;;;;;;;0.50;0.50;;;;;;;;;;5055897;28;20186;-85
2023/05/13 01:32:48;;;;;;;0.50;0.50;;;;;;;;;;5054142;28;20214;-85
2023/05/13 01:35:14;;;;;;;0.50;0.50;;;;;;;;;;5053698;28;20707;-86
2023/05/13 01:37:41;;;;;;;0.50;0.50;;;;;;;;;;5055301;28;20183;-86
2023/05/13 01:40:07;;;;;;;0.50;0.50;;;;;;;;;;5053429;28;20274;-86
2023/05/13 01:42:33;;;;;;;0.40;0.40;;;;;;;;;;5054148;28;20210;-85
2023/05/13 01:45:00;;;;;;;0.50;0.50;;;;;;;;;;5052972;28;20179;-85
2023/05/13 01:47:26;;;;;;;0.60;0.60;;;;;;;;;;5052798;28;20187;-85
2023/05/13 01:49:52;;;;;;;0.50;0.50;;;;;;;;;;5052361;28;20642;-86
2023/05/13 01:52:18;;;;;;;0.40;0.40;;;;;;;;;;5053479;28;20265;-86
2023/05/13 01:54:44;;;;;;;0.50;0.50;;;;;;;;;;5054091;28;20233;-85
2023/05/13 01:57:10;;;;;;;0.40;0.40;;;;;;;;;;5055120;28;20246;-86
2023/05/13 01:59:36;;;;;;;0.50;0.50;;;;;;;;;;5054836;28;20225;-84
2023/05/13 02:02:02;;;;;;;0.50;0.50;;;;;;;;;;5066821;28;20197;-85
2023/05/13 02:04:28;;;;;;;0.50;0.50;;;;;;;;;;5077113;28;20234;-84
2023/05/13 02:06:54;;;;;;;0.50;0.50;;;;;;;;;;5071491;28;20195;-85
2023/05/13 02:09:20;;;;;;;0.57;0.57;;;;;;;;;;5053078;28;20618;-86
2023/05/13 02:11:46;;;;;;;0.50;0.50;;;;;;;;;;5051873;28;20254;-85
2023/05/13 02:14:12;;;;;;;0.60;0.60;;;;;;;;;;5051742;28;20505;-84
2023/05/13 02:16:38;;;;;;;0.60;0.60;;;;;;;;;;5052411;28;20232;-85
2023/05/13 02:19:04;;;;;;;0.50;0.50;;;;;;;;;;5053337;28;20273;-85
2023/05/13 02:21:31;;;;;;;0.60;0.60;;;;;;;;;;5053534;28;20179;-85
2023/05/13 02:23:57;;;;;;;0.60;0.60;;;;;;;;;;5053006;28;20198;-85
2023/05/13 02:26:23;;;;;;;0.60;0.60;;;;;;;;;;5057753;28;20178;-85
2023/05/13 02:28:49;;;;;;;0.50;0.50;;;;;;;;;;5056714;28;20186;-85
2023/05/13 02:31:15;;;;;;;0.50;0.50;;;;;;;;;;5056313;28;20190;-86
2023/05/13 02:33:41;;;;;;;0.60;0.60;;;;;;;;;;5055854;28;20219;-85
2023/05/13 02:36:07;;;;;;;0.50;0.50;;;;;;;;;;5056949;28;20171;-86
2023/05/13 02:38:33;;;;;;;0.60;0.60;;;;;;;;;;5057340;28;20175;-86
2023/05/13 02:41:00;;;;;;;0.40;0.40;;;;;;;;;;5057274;28;20183;-85
2023/05/13 02:43:26;;;;;;;0.60;0.60;;;;;;;;;;5056232;28;20277;-86
2023/05/13 02:45:52;;;;;;;0.50;0.50;;;;;;;;;;5055823;28;20190;-85
2023/05/13 02:48:18;;;;;;;0.67;0.67;;;;;;;;;;5056340;28;20175;-85
2023/05/13 02:50:44;;;;;;;0.53;0.53;;;;;;;;;;5056440;28;20270;-86
2023/05/13 02:53:10;;;;;;;0.50;0.50;;;;;;;;;;5055256;28;20314;-86
2023/05/13 02:55:36;;;;;;;0.50;0.50;;;;;;;;;;5055957;28;20191;-85
2023/05/13 02:58:03;;;;;;;0.50;0.50;;;;;;;;;;5057213;28;20246;-85
2023/05/13 03:00:29;;;;;;;0.40;0.40;;;;;;;;;;5056543;28;20179;-84
2023/05/13 03:02:56;;;;;;;0.40;0.40;;;;;;;;;;5055571;28;20209;-85
2023/05/13 03:05:22;;;;;;;0.50;0.50;;;;;;;;;;5056323;28;20183;-85
2023/05/13 03:07:48;;;;;;;0.50;0.50;;;;;;;;;;5056029;28;20199;-86
2023/05/13 03:10:14;;;;;;;0.53;0.53;;;;;;;;;;5067685;22;20224;-84
2023/05/13 03:12:42;;;;;;;0.50;0.50;;;;;;;;;;5040288;28;20221;-84
2023/05/13 03:15:08;;;;;;;0.50;0.50;;;;;;;;;;5040314;28;20230;-83
2023/05/13 03:17:34;;;;;;;0.47;0.47;;;;;;;;;;5039807;28;20190;-84
2023/05/13 03:20:00;;;;;;;0.50;0.50;;;;;;;;;;5039257;28;20267;-81
2023/05/13 03:22:26;;;;;;;0.40;0.40;;;;;;;;;;5036614;28;20603;-81
2023/05/13 03:24:52;;;;;;;0.57;0.57;;;;;;;;;;5044180;28;20198;-79
2023/05/13 03:27:18;;;;;;;0.47;0.47;;;;;;;;;;5056018;28;20274;-79
2023/05/13 03:29:44;;;;;;;0.50;0.50;;;;;;;;;;5056281;28;20160;-79
2023/05/13 03:32:10;;;;;;;0.50;0.50;;;;;;;;;;5055803;28;20227;-79
2023/05/13 03:34:36;;;;;;;0.40;0.40;;;;;;;;;;5043641;28;20200;-82
2023/05/13 03:37:02;;;;;;;0.50;0.50;;;;;;;;;;5038562;28;20179;-82
2023/05/13 03:39:28;;;;;;;0.40;0.40;;;;;;;;;;5038441;28;20199;-82
2023/05/13 03:41:54;;;;;;;0.50;0.50;;;;;;;;;;5037555;28;20180;-81
2023/05/13 03:44:20;;;;;;;0.50;0.50;;;;;;;;;;5036341;28;20241;-82
2023/05/13 03:46:46;;;;;;;0.40;0.40;;;;;;;;;;5036651;28;20274;-81
2023/05/13 03:49:12;;;;;;;0.50;0.50;;;;;;;;;;5036390;28;20180;-82
2023/05/13 03:51:38;;;;;;;0.40;0.40;;;;;;;;;;5036001;28;20549;-82
2023/05/13 03:54:04;;;;;;;0.50;0.50;;;;;;;;;;5035082;28;20215;-82
2023/05/13 03:56:30;;;;;;;0.50;0.50;;;;;;;;;;5035263;28;20531;-81
2023/05/13 03:58:58;;;;;;;0.40;0.40;;;;;;;;;;5035312;28;20257;-82
2023/05/13 04:01:24;;;;;;;0.43;0.43;;;;;;;;;;5035444;28;20271;-81
2023/05/13 04:03:50;;;;;;;0.50;0.50;;;;;;;;;;5034549;28;20207;-81
2023/05/13 04:06:16;;;;;;;0.50;0.50;;;;;;;;;;5035439;28;20184;-82
2023/05/13 04:08:42;;;;;;;0.50;0.50;;;;;;;;;;5035533;28;20195;-82
2023/05/13 04:11:08;;;;;;;0.50;0.50;;;;;;;;;;5035601;28;20186;-81
2023/05/13 04:13:35;;;;;;;0.37;0.37;;;;;;;;;;5034562;28;20533;-82
2023/05/13 04:16:01;;;;;;;0.40;0.40;;;;;;;;;;5035133;28;20639;-82
2023/05/13 04:18:28;;;;;;;0.40;0.40;;;;;;;;;;5034764;28;20198;-81
2023/05/13 04:20:54;;;;;;;0.40;0.40;;;;;;;;;;5034737;28;20191;-82
2023/05/13 04:23:21;;;;;;;0.40;0.40;;;;;;;;;;5034269;28;20200;-80
2023/05/13 04:25:51;;;;;;;0.40;0.40;;;;;;;;;;5034740;28;20176;-81
2023/05/13 04:28:17;;;;;;;0.40;0.40;;;;;;;;;;5034386;28;20710;-80
2023/05/13 04:30:43;;;;;;;0.40;0.40;;;;;;;;;;5034861;28;20187;-81
2023/05/13 04:33:09;;;;;;;0.40;0.40;;;;;;;;;;5033842;28;20298;-81
2023/05/13 04:35:35;;;;;;;0.40;0.40;;;;;;;;;;5034479;28;20646;-81
2023/05/13 04:38:01;;;;;;;0.50;0.50;;;;;;;;;;5034613;28;20183;-81
2023/05/13 04:40:27;;;;;;;0.40;0.40;;;;;;;;;;5034233;28;20265;-81
2023/05/13 04:42:53;;;;;;;0.40;0.40;;;;;;;;;;5033965;28;20275;-85
2023/05/13 04:45:20;;;;;;;0.50;0.50;;;;;;;;;;5034175;28;20180;-81
2023/05/13 04:47:46;;;;;;;0.50;0.50;;;;;;;;;;5033049;28;20261;-81
2023/05/13 04:50:12;;;;;;;0.50;0.50;;;;;;;;;;5033971;28;20545;-81
2023/05/13 04:52:38;;;;;;;0.50;0.50;;;;;;;;;;5033367;28;20670;-81
2023/05/13 04:55:04;;;;;;;0.50;0.50;;;;;;;;;;5016018;28;20207;-83
2023/05/13 04:57:30;;;;;;;0.47;0.47;;;;;;;;;;5034123;28;20302;-82
2023/05/13 04:59:56;;;;;;;0.43;0.43;;;;;;;;;;5033735;28;20646;-81
2023/05/13 05:02:22;;;;;;;0.40;0.40;;;;;;;;;;5033431;28;20195;-81
2023/05/13 05:04:48;;;;;;;0.47;0.47;;;;;;;;;;5033608;28;20246;-80
2023/05/13 05:07:14;;;;;;;0.60;0.60;;;;;;;;;;5033863;28;20274;-80
2023/05/13 05:09:40;;;;;;;0.47;0.47;;;;;;;;;;5034052;28;20673;-80
2023/05/13 05:12:06;;;;;;;0.50;0.50;;;;;;;;;;5033049;28;20220;-81
2023/05/13 05:14:32;;;;;;;0.40;0.40;;;;;;;;;;5034472;28;20666;-80
2023/05/13 05:16:58;;;;;;;0.50;0.50;;;;;;;;;;5034160;28;20186;-80
2023/05/13 05:19:24;;;;;;;0.50;0.50;;;;;;;;;;5034526;28;20180;-81
2023/05/13 05:21:51;;;;;;;0.50;0.50;;;;;;;;;;5034344;28;20654;-81
2023/05/13 05:24:17;;;;;;;0.50;0.50;;;;;;;;;;5032484;28;20180;-81
2023/05/13 05:26:43;;;;;;;0.60;0.60;;;;;;;;;;5033541;28;20250;-81
2023/05/13 05:29:09;;;;;;;0.47;0.47;;;;;;;;;;5033590;28;20634;-82
2023/05/13 05:31:35;;;;;;;0.60;0.60;;;;;;;;;;5034399;28;20260;-81
2023/05/13 05:34:01;;;;;;;0.50;0.50;;;;;;;;;;5033366;28;20219;-81
2023/05/13 05:36:28;;;;;;;0.50;0.50;;;;;;;;;;5033444;28;20235;-81
2023/05/13 05:38:55;;;;;;;0.50;0.50;;;;;;;;;;5033436;28;20553;-81
2023/05/13 05:41:21;;;;;;;0.50;0.50;;;;;;;;;;5033457;28;20176;-82
2023/05/13 05:43:47;;;;;;;0.50;0.50;;;;;;;;;;5032845;28;20265;-81
2023/05/13 05:46:13;;;;;;;0.50;0.50;;;;;;;;;;5033459;28;20171;-79
2023/05/13 05:48:39;;;;;;;0.60;0.60;;;;;;;;;;5033608;28;20214;-83
2023/05/13 05:51:05;;;;;;;0.53;0.53;;;;;;;;;;5033929;28;20187;-81
2023/05/13 05:53:31;;;;;;;0.60;0.60;;;;;;;;;;5032693;28;20284;-82
2023/05/13 05:55:57;;;;;;;0.40;0.40;;;;;;;;;;5034025;28;20184;-81
2023/05/13 05:58:25;;;;;;;0.40;0.40;;;;;;;;;;5033958;28;20359;-82
2023/05/13 06:00:53;;;;;;;0.40;0.40;;;;;;;;;;5033712;28;20176;-82
2023/05/13 06:03:19;;;;;;;0.50;0.50;;;;;;;;;;5033363;28;20207;-82
2023/05/13 06:05:45;;;;;;;0.50;0.50;;;;;;;;;;5033665;28;20665;-81
2023/05/13 06:08:11;;;;;;;0.50;0.50;;;;;;;;;;5033839;28;20266;-82
2023/05/13 06:10:37;;;;;;;0.40;0.40;;;;;;;;;;5033586;28;20196;-80
2023/05/13 06:13:03;;;;;;;0.40;0.40;;;;;;;;;;5033147;28;20249;-81
2023/05/13 06:15:29;;;;;;;0.50;0.50;;;;;;;;;;5033834;28;20176;-81
2023/05/13 06:17:56;;;;;;;0.40;0.40;;;;;;;;;;5033628;28;20639;-82
2023/05/13 06:20:22;;;;;;;0.50;0.50;;;;;;;;;;5033682;28;20191;-82
2023/05/13 06:22:48;;;;;;;0.53;0.53;;;;;;;;;;5033151;28;20203;-80
2023/05/13 06:25:14;;;;;;;0.50;0.50;;;;;;;;;;5033937;28;20247;-82
2023/05/13 06:27:40;;;;;;;0.50;0.50;;;;;;;;;;5034133;28;20211;-82
2023/05/13 06:30:10;;;;;;;0.60;0.60;;;;;;;;;;5035737;28;20179;-83
2023/05/13 06:32:36;;;;;;;0.40;0.40;;;;;;;;;;5034301;28;20242;-82
2023/05/13 06:35:02;;;;;;;0.40;0.40;;;;;;;;;;5034083;28;20180;-81
2023/05/13 06:37:28;;;;;;;0.50;0.50;;;;;;;;;;5034833;28;20179;-82
2023/05/13 06:39:54;;;;;;;0.50;0.50;;;;;;;;;;5036293;28;20179;-81
2023/05/13 06:42:20;;;;;;;0.50;0.50;;;;;;;;;;5037399;28;20257;-84
2023/05/13 06:44:46;;;;;;;0.53;0.53;;;;;;;;;;5042459;28;20569;-86
2023/05/13 06:47:14;;;;;;;0.60;0.60;;;;;;;;;;5051082;28;20160;-84
2023/05/13 06:49:41;;;;;;;0.57;0.57;;;;;;;;;;5050247;28;20167;-85
2023/05/13 06:52:07;;;;;;;0.40;0.40;;;;;;;;;;5052530;28;20172;-80
2023/05/13 06:54:33;;;;;;;0.50;0.50;;;;;;;;;;5052143;28;20184;-83
2023/05/13 06:56:59;;;;;;;0.60;0.60;;;;;;;;;;5052296;28;20283;-86
2023/05/13 06:59:25;;;;;;;0.60;0.60;;;;;;;;;;5039954;28;20186;-84
2023/05/13 07:01:52;;;;;;;0.53;0.53;;;;;;;;;;5037647;28;20183;-86
2023/05/13 07:04:18;;;;;;;0.47;0.47;;;;;;;;;;5037596;28;20180;-83
2023/05/13 07:06:44;;;;;;;0.40;0.40;;;;;;;;;;5035591;28;20229;-84
2023/05/13 07:09:10;;;;;;;0.40;0.40;;;;;;;;;;5035925;28;20198;-85
2023/05/13 07:11:36;;;;;;;0.50;0.50;;;;;;;;;;5039472;28;20195;-84
2023/05/13 07:14:02;;;;;;;0.40;0.40;;;;;;;;;;5038838;28;20694;-83
2023/05/13 07:16:28;;;;;;;0.50;0.50;;;;;;;;;;5039092;28;20172;-83
2023/05/13 07:18:54;;;;;;;0.43;0.43;;;;;;;;;;5039606;28;20283;-83
2023/05/13 07:21:20;;;;;;;0.50;0.50;;;;;;;;;;5039067;28;20179;-84
2023/05/13 07:23:46;;;;;;;0.50;0.50;;;;;;;;;;5037819;28;20227;-82
2023/05/13 07:26:12;;;;;;;0.50;0.50;;;;;;;;;;5038729;28;20226;-84
2023/05/13 07:28:38;;;;;;;0.50;0.50;;;;;;;;;;5037936;28;20183;-81
2023/05/13 07:31:04;;;;;;;0.40;0.40;;;;;;;;;;5038654;28;20195;-82
2023/05/13 07:33:30;;;;;;;0.50;0.50;;;;;;;;;;5037116;28;20218;-83
2023/05/13 07:35:56;;;;;;;0.60;0.60;;;;;;;;;;5038367;28;20176;-82
2023/05/13 07:38:22;;;;;;;0.50;0.50;;;;;;;;;;5019954;28;20673;-84
2023/05/13 07:40:48;;;;;;;0.50;0.50;;;;;;;;;;5037819;28;20168;-85
2023/05/13 07:43:22;;;;;;;0.53;0.53;;;;;;;;;;5037698;28;20655;-82
2023/05/13 07:45:48;;;;;;;0.60;0.60;;;;;;;;;;5037857;28;20191;-81
2023/05/13 07:48:14;;;;;;;0.50;0.50;;;;;;;;;;5038210;28;20184;-82
2023/05/13 07:50:40;;;;;;;0.40;0.40;;;;;;;;;;5038481;28;20196;-84
2023/05/13 07:53:06;;;;;;;0.50;0.50;;;;;;;;;;5037605;28;20219;-83
2023/05/13 07:55:32;;;;;;;0.40;0.40;;;;;;;;;;5037933;28;20606;-83
2023/05/13 07:57:58;;;;;;;0.50;0.50;;;;;;;;;;5038345;28;20267;-84
2023/05/13 08:00:24;;;;;;;0.40;0.40;;;;;;;;;;5037838;28;20544;-82
2023/05/13 08:02:50;;;;;;;0.40;0.40;;;;;;;;;;5038316;28;20381;-82
2023/05/13 08:05:16;;;;;;;0.33;0.33;;;;;;;;;;5019669;28;20176;-82
2023/05/13 08:07:42;;;;;;;0.40;0.40;;;;;;;;;;5037442;28;20642;-83
2023/05/13 08:10:08;;;;;;;0.47;0.47;;;;;;;;;;5037826;28;20207;-82
2023/05/13 08:12:34;;;;;;;0.50;0.50;;;;;;;;;;5036778;28;20226;-83
2023/05/13 08:15:02;;;;;;;0.50;0.50;;;;;;;;;;5038198;28;20207;-83
2023/05/13 08:17:28;;;;;;;0.50;0.50;;;;;;;;;;5038147;28;20184;-81
2023/05/13 08:19:54;;;;;;;0.40;0.40;;;;;;;;;;5038332;28;20191;-83
2023/05/13 08:22:20;;;;;;;0.43;0.43;;;;;;;;;;5035932;28;20614;-82
2023/05/13 08:24:46;;;;;;;0.40;0.40;;;;;;;;;;5037967;28;20180;-84
2023/05/13 08:27:12;;;;;;;0.30;0.30;;;;;;;;;;5037660;28;20184;-84
2023/05/13 08:29:38;;;;;;;0.50;0.50;;;;;;;;;;5037291;28;20175;-84
2023/05/13 08:32:05;;;;;;;0.40;0.40;;;;;;;;;;5037368;28;20643;-83
2023/05/13 08:34:31;;;;;;;0.40;0.40;;;;;;;;;;5037870;28;20184;-83
2023/05/13 08:36:56;;;;;;;0.50;0.50;;;;;;;;;;5039358;28;20234;-82
2023/05/13 08:39:22;;;;;;;0.50;0.50;;;;;;;;;;5037670;28;20706;-83
2023/05/13 08:41:49;;;;;;;0.43;0.43;;;;;;;;;;5037365;28;20184;-83
2023/05/13 08:44:17;;;;;;;0.40;0.40;;;;;;;;;;5038184;28;20291;-82
2023/05/13 08:46:49;;;;;;;0.40;0.40;;;;;;;;;;5039893;28;20172;-83
2023/05/13 08:49:15;;;;;;;0.40;0.40;;;;;;;;;;5038192;28;20172;-83
2023/05/13 08:51:43;;;;;;;0.47;0.47;;;;;;;;;;5042648;28;20171;-82
2023/05/13 08:54:10;;;;;;;0.50;0.50;;;;;;;;;;5047824;28;20223;-84
2023/05/13 08:56:36;;;;;;;0.50;0.50;;;;;;;;;;5048013;28;20175;-84
2023/05/13 08:59:02;;;;;;;0.50;0.50;;;;;;;;;;5049148;28;20250;-82
2023/05/13 09:01:29;;;;;;;0.40;0.40;;;;;;;;;;5054133;28;20203;-82
2023/05/13 09:04:01;;;;;;;0.40;0.40;;;;;;;;;;5054741;28;20205;-83
2023/05/13 09:06:27;;;;;;;0.40;0.40;;;;;;;;;;5055896;28;20183;-82
2023/05/13 09:08:55;;;;;;;0.47;0.47;;;;;;;;;;5055751;28;20624;-82
2023/05/13 09:11:22;;;;;;;0.50;0.50;;;;;;;;;;5056103;28;20174;-82
2023/05/13 09:13:57;;;;;;;0.60;0.60;;;;;;;;;;5056872;28;20234;-82
2023/05/13 09:16:24;;;;;;;0.40;0.40;;;;;;;;;;5071801;28;20178;-79
2023/05/13 09:18:55;;;;;;;0.50;0.50;;;;;;;;;;5071932;28;20199;-80
2023/05/13 09:21:22;;;;;;;0.50;0.50;;;;;;;;;;5072272;28;20179;-80
2023/05/13 09:23:48;;;;;;;0.50;0.50;;;;;;;;;;5070934;28;20210;-81
2023/05/13 09:26:27;;;;;;;0.50;0.50;;;;;;;;;;5068176;28;20164;-84
2023/05/13 09:29:12;;;;;;;0.50;0.50;;;;;;;;;;5039304;28;20219;-83
2023/05/13 09:31:38;;;;;;;0.50;0.50;;;;;;;;;;5038963;28;20251;-84
2023/05/13 09:34:03;;;;;;;0.50;0.50;;;;;;;;;;5035900;28;20249;-83
2023/05/13 09:36:31;;;;;;;0.60;0.60;;;;;;;;;;5036593;28;20655;-85
2023/05/13 09:38:57;;;;;;;0.40;0.40;;;;;;;;;;5036761;28;20614;-83
2023/05/13 09:41:24;;;;;;;0.50;0.50;;;;;;;;;;5037596;28;20190;-83
2023/05/13 09:43:50;;;;;;;0.53;0.53;;;;;;;;;;5051135;28;20230;-84
2023/05/13 09:46:16;;;;;;;0.50;0.50;;;;;;;;;;5037563;28;20180;-84
2023/05/13 09:48:42;;;;;;;0.43;0.43;;;;;;;;;;5038323;28;20255;-83
2023/05/13 09:51:08;;;;;;;0.40;0.40;;;;;;;;;;5036252;28;20883;-82
2023/05/13 09:53:34;;;;;;;0.60;0.60;;;;;;;;;;5035116;28;20264;-83
2023/05/13 09:56:00;;;;;;;0.60;0.60;;;;;;;;;;5037853;28;20183;-82
2023/05/13 09:58:29;;;;;;;0.60;0.60;;;;;;;;;;5042523;28;20547;-82
2023/05/13 10:00:55;;;;;;;0.50;0.50;;;;;;;;;;5053727;28;20167;-82
2023/05/13 10:03:21;;;;;;;0.50;0.50;;;;;;;;;;5052875;28;20244;-81
2023/05/13 10:05:48;;;;;;;0.53;0.53;;;;;;;;;;5053812;28;20282;-83
2023/05/13 10:08:15;;;;;;;0.40;0.40;;;;;;;;;;5053119;28;20187;-80
2023/05/13 10:10:44;;;;;;;0.50;0.50;;;;;;;;;;5053193;28;20248;-80
2023/05/13 10:13:12;;;;;;;0.60;0.60;;;;;;;;;;5052981;28;20217;-82
2023/05/13 10:15:57;;;;;;;0.50;0.50;;;;;;;;;;5053281;28;20171;-83
2023/05/13 10:18:23;;;;;;;0.40;0.40;;;;;;;;;;5053499;28;20767;-82
2023/05/13 10:20:51;;;;;;;0.40;0.40;;;;;;;;;;5053599;28;20587;-82
2023/05/13 10:23:19;;;;;;;0.60;0.60;;;;;;;;;;5035148;28;20217;-80
2023/05/13 10:25:46;;;;;;;0.40;0.40;;;;;;;;;;5020323;28;20649;-81
2023/05/13 10:28:13;;;;;;;0.40;0.40;;;;;;;;;;5053356;28;20241;-81
2023/05/13 10:30:40;;;;;;;0.60;0.60;;;;;;;;;;5052861;28;20661;-82
2023/05/13 10:33:06;;;;;;;0.60;0.60;;;;;;;;;;5050439;28;20211;-81
2023/05/13 10:35:34;;;;;;;0.63;0.63;;;;;;;;;;5052578;28;20175;-81
2023/05/13 10:38:12;;;;;;;0.50;0.50;;;;;;;;;;5053348;28;20171;-82
2023/05/13 10:40:53;;;;;;;0.50;0.50;;;;;;;;;;5055513;28;20186;-79
2023/05/13 10:43:31;;;;;;;0.50;0.50;;;;;;;;;;5068003;28;20183;-79
2023/05/13 10:46:01;;;;;;;0.50;0.50;;;;;;;;;;5072999;28;20178;-80
2023/05/13 10:48:37;;;;;;;0.50;0.50;;;;;;;;;;5074489;28;20226;-79
2023/05/13 10:51:07;;;;;;;0.40;0.40;;;;;;;;;;5073620;28;20171;-80
2023/05/13 10:53:36;;;;;;;0.40;0.40;;;;;;;;;;5067001;28;20302;-79
2023/05/13 10:56:06;;;;;;;0.60;0.60;;;;;;;;;;5062677;28;20278;-81
2023/05/13 10:58:33;;;;;;;0.60;0.60;;;;;;;;;;5059198;28;20668;-81
2023/05/13 11:01:13;;;;;;;0.50;0.50;;;;;;;;;;5059030;28;20179;-81
2023/05/13 11:03:39;;;;;;;0.40;0.40;;;;;;;;;;5058132;28;20287;-81
2023/05/13 11:06:18;;;;;;;0.43;0.43;;;;;;;;;;5058670;28;20179;-81
2023/05/13 11:08:51;;;;;;;0.50;0.50;;;;;;;;;;5058448;28;20186;-81
2023/05/13 11:11:20;;;;;;;0.50;0.50;;;;;;;;;;5058813;28;20179;-81
2023/05/13 11:13:46;;;;;;;0.47;0.47;;;;;;;;;;5058265;28;20263;-82
2023/05/13 11:16:13;;;;;;;0.47;0.47;;;;;;;;;;5058156;28;20175;-81
2023/05/13 11:18:39;;;;;;;0.50;0.50;;;;;;;;;;5066519;28;20184;-81
2023/05/13 11:21:06;;;;;;;0.47;0.47;;;;;;;;;;5071283;28;20167;-81
2023/05/13 11:23:36;;;;;;;0.47;0.47;;;;;;;;;;5069183;28;20672;-80
2023/05/13 11:26:18;;;;;;;0.40;0.40;;;;;;;;;;5058483;28;20167;-80
2023/05/13 11:29:10;;;;;;;0.60;0.60;;;;;;;;;;5057208;28;20235;-81
2023/05/13 11:31:44;;;;;;;0.40;0.40;;;;;;;;;;5052666;28;20527;-81
2023/05/13 11:34:11;;;;;;;0.50;0.50;;;;;;;;;;5056646;28;20249;-81
2023/05/13 11:36:39;;;;;;;0.50;0.50;;;;;;;;;;5056849;28;20179;-82
2023/05/13 11:39:06;;;;;;;0.50;0.50;;;;;;;;;;5057109;28;20187;-81
2023/05/13 11:41:32;;;;;;;0.60;0.60;;;;;;;;;;5057961;28;20236;-82
2023/05/13 11:43:59;;;;;;;0.50;0.50;;;;;;;;;;5056039;28;20199;-81
2023/05/13 11:46:25;;;;;;;0.50;0.50;;;;;;;;;;5056835;28;20186;-81
2023/05/13 11:48:51;;;;;;;0.60;0.60;;;;;;;;;;5056617;28;20171;-81
2023/05/13 11:51:20;;;;;;;0.50;0.50;;;;;;;;;;5056456;28;20171;-81
2023/05/13 11:53:46;;;;;;;0.40;0.40;;;;;;;;;;5056275;28;20253;-83
2023/05/13 11:56:12;;;;;;;0.50;0.50;;;;;;;;;;5056187;28;20182;-82
2023/05/13 11:58:38;;;;;;;0.60;0.60;;;;;;;;;;5056657;28;20191;-82
2023/05/13 12:01:04;;;;;;;0.60;0.60;;;;;;;;;;5056156;28;20175;-82
2023/05/13 12:03:30;;;;;;;0.60;0.60;;;;;;;;;;5055701;28;20731;-82
2023/05/13 12:06:04;;;;;;;0.60;0.60;;;;;;;;;;5056137;28;20171;-84
2023/05/13 12:08:30;;;;;;;0.40;0.40;;;;;;;;;;5056473;28;20171;-81
2023/05/13 12:10:58;;;;;;;0.60;0.60;;;;;;;;;;5056207;28;20217;-81
2023/05/13 12:13:24;;;;;;;0.40;0.40;;;;;;;;;;5055603;28;20219;-81
2023/05/13 12:15:50;;;;;;;0.40;0.40;;;;;;;;;;5056141;28;20171;-82
2023/05/13 12:18:16;;;;;;;0.50;0.50;;;;;;;;;;5055737;28;20179;-81
2023/05/13 12:20:43;;;;;;;0.50;0.50;;;;;;;;;;5056135;28;20253;-81
2023/05/13 12:23:12;;;;;;;0.50;0.50;;;;;;;;;;5054920;28;20703;-81
2023/05/13 12:25:40;;;;;;;0.53;0.53;;;;;;;;;;5055634;28;20213;-81
2023/05/13 12:28:08;;;;;;;0.53;0.53;;;;;;;;;;5055608;28;20172;-80
2023/05/13 12:30:34;;;;;;;0.60;0.60;;;;;;;;;;5055862;28;20175;-82
2023/05/13 12:33:00;;;;;;;0.40;0.40;;;;;;;;;;5054911;28;20218;-81
2023/05/13 12:35:27;;;;;;;0.53;0.53;;;;;;;;;;5055131;28;20183;-83
2023/05/13 12:38:00;;;;;;;0.50;0.50;;;;;;;;;;5055313;28;20183;-81
2023/05/13 12:40:26;;;;;;;0.50;0.50;;;;;;;;;;5055401;28;20179;-81
2023/05/13 12:42:55;;;;;;;0.40;0.40;;;;;;;;;;5054825;28;20631;-80
2023/05/13 12:45:21;;;;;;;0.50;0.50;;;;;;;;;;5055652;28;20174;-81
2023/05/13 12:47:50;;;;;;;0.50;0.50;;;;;;;;;;5055180;28;20233;-80
2023/05/13 12:50:16;;;;;;;0.40;0.40;;;;;;;;;;5055214;28;20680;-81
2023/05/13 12:52:42;;;;;;;0.47;0.47;;;;;;;;;;5054783;28;20301;-81
2023/05/13 12:55:09;;;;;;;0.40;0.40;;;;;;;;;;5055868;28;20222;-81
2023/05/13 12:57:35;;;;;;;0.50;0.50;;;;;;;;;;5041158;28;20179;-81
2023/05/13 13:00:01;;;;;;;0.40;0.40;;;;;;;;;;5034889;28;20210;-85
2023/05/13 13:02:27;;;;;;;0.50;0.50;;;;;;;;;;5031307;28;20199;-80
2023/05/13 13:04:53;;;;;;;0.50;0.50;;;;;;;;;;5032238;28;20180;-82
2023/05/13 13:07:19;;;;;;;0.50;0.50;;;;;;;;;;5031839;28;20176;-81
2023/05/13 13:09:45;;;;;;;0.50;0.50;;;;;;;;;;5034454;28;20546;-82
2023/05/13 13:12:11;;;;;;;0.53;0.53;;;;;;;;;;5034564;28;20199;-81
2023/05/13 13:14:37;;;;;;;0.60;0.60;;;;;;;;;;5035380;28;20612;-80
2023/05/13 13:17:03;;;;;;;0.50;0.50;;;;;;;;;;5035111;28;20191;-82
2023/05/13 13:19:30;;;;;;;0.50;0.50;;;;;;;;;;5034570;28;20274;-81
2023/05/13 13:21:56;;;;;;;0.50;0.50;;;;;;;;;;5035002;28;20593;-80
2023/05/13 13:24:21;;;;;;;0.53;0.53;;;;;;;;;;5034236;28;20190;-81
2023/05/13 13:26:48;;;;;;;0.50;0.50;;;;;;;;;;5035354;28;20183;-82
2023/05/13 13:29:14;;;;;;;0.40;0.40;;;;;;;;;;5034339;28;20256;-82
2023/05/13 13:31:40;;;;;;;0.43;0.43;;;;;;;;;;5033956;28;20666;-83
2023/05/13 13:34:08;;;;;;;0.30;0.30;;;;;;;;;;5034110;28;20238;-82
2023/05/13 13:36:34;;;;;;;0.50;0.50;;;;;;;;;;5034191;28;20187;-81
2023/05/13 13:39:00;;;;;;;0.57;0.57;;;;;;;;;;5033728;28;20172;-82
2023/05/13 13:41:26;;;;;;;0.70;0.70;;;;;;;;;;5034587;28;20183;-80
2023/05/13 13:43:52;;;;;;;0.50;0.50;;;;;;;;;;5033484;28;20246;-82
2023/05/13 13:46:18;;;;;;;0.47;0.47;;;;;;;;;;5034021;28;20187;-79
2023/05/13 13:48:44;;;;;;;0.40;0.40;;;;;;;;;;5038052;28;20206;-82
2023/05/13 13:51:10;;;;;;;0.50;0.50;;;;;;;;;;5037194;28;20218;-81
2023/05/13 13:53:36;;;;;;;0.40;0.40;;;;;;;;;;5033356;28;20219;-81
2023/05/13 13:56:02;;;;;;;0.60;0.60;;;;;;;;;;5035812;28;20176;-79
2023/05/13 13:58:28;;;;;;;0.50;0.50;;;;;;;;;;5049158;28;20175;-80
2023/05/13 14:00:54;;;;;;;0.60;0.60;;;;;;;;;;5071307;28;20171;-79
2023/05/13 14:03:20;;;;;;;0.50;0.50;;;;;;;;;;5072073;28;20258;-79
2023/05/13 14:05:46;;;;;;;0.60;0.60;;;;;;;;;;5073741;28;20263;-79
2023/05/13 14:08:12;;;;;;;0.60;0.60;;;;;;;;;;5056478;28;20538;-81
2023/05/13 14:10:38;;;;;;;0.50;0.50;;;;;;;;;;5054397;28;20195;-82
2023/05/13 14:13:05;;;;;;;0.40;0.40;;;;;;;;;;5054203;28;20214;-82
2023/05/13 14:15:31;;;;;;;0.40;0.40;;;;;;;;;;5054528;28;20631;-81
2023/05/13 14:17:57;;;;;;;0.47;0.47;;;;;;;;;;5054668;28;20174;-80
2023/05/13 14:20:27;;;;;;;0.50;0.50;;;;;;;;;;5054187;28;20220;-80
2023/05/13 14:22:53;;;;;;;0.50;0.50;;;;;;;;;;5053913;28;20623;-82
2023/05/13 14:25:19;;;;;;;0.50;0.50;;;;;;;;;;5054349;28;20179;-80
2023/05/13 14:27:45;;;;;;;0.50;0.50;;;;;;;;;;5053848;28;20544;-81
2023/05/13 14:30:11;;;;;;;0.50;0.50;;;;;;;;;;5054233;28;20183;-81
2023/05/13 14:32:37;;;;;;;0.50;0.50;;;;;;;;;;5053157;28;20207;-82
2023/05/13 14:35:03;;;;;;;0.53;0.53;;;;;;;;;;5053812;28;20204;-82
2023/05/13 14:37:29;;;;;;;0.60;0.60;;;;;;;;;;5053296;28;20179;-82
2023/05/13 14:39:55;;;;;;;0.57;0.57;;;;;;;;;;5054387;28;20265;-82
2023/05/13 14:42:21;;;;;;;0.40;0.40;;;;;;;;;;5053175;28;20207;-83